Time;durP1;ratioP1;P1;durP2;ratioP2;P2;SDS_P1;SDS_P2;PMS_P1;PMS_P2;Temp;Humidity;BMP_temperature;BMP_pressure;BME280_temperature;BME280_humidity;BME280_pressure;Samples;Min_cycle;Max_cycle;Signal;HPM_P1;HPM_P2
2023/09/01 00:01:33;;;;;;;3.55;1.33;;;13.90;73.00;;;;;;5136230;27;20131;-73
2023/09/01 00:04:20;;;;;;;4.20;1.40;;;13.90;73.00;;;;;;5088910;27;20159;-74
2023/09/01 00:06:47;;;;;;;3.43;1.30;;;13.90;73.00;;;;;;5113384;27;20658;-74
2023/09/01 00:09:14;;;;;;;4.20;1.48;;;13.90;73.00;;;;;;5089333;27;21888;-74
2023/09/01 00:11:41;;;;;;;3.83;1.50;;;13.90;73.20;;;;;;5118900;27;20045;-73
2023/09/01 00:14:08;;;;;;;4.85;1.73;;;13.80;73.30;;;;;;5106178;28;20044;-73
2023/09/01 00:16:35;;;;;;;4.00;1.77;;;13.80;73.30;;;;;;5092633;27;20080;-74
2023/09/01 00:19:03;;;;;;;4.10;2.00;;;13.80;73.30;;;;;;5138600;27;20636;-74
2023/09/01 00:21:32;;;;;;;4.43;1.80;;;13.70;73.30;;;;;;5135680;27;20421;-73
2023/09/01 00:23:59;;;;;;;4.03;2.00;;;13.70;73.40;;;;;;5105375;27;20049;-73
2023/09/01 00:26:26;;;;;;;3.80;1.73;;;13.70;73.50;;;;;;5105776;27;20059;-73
2023/09/01 00:28:52;;;;;;;4.38;1.80;;;13.70;73.60;;;;;;5084826;27;20177;-74
2023/09/01 00:31:21;;;;;;;3.80;1.63;;;13.70;73.70;;;;;;5125482;27;20048;-73
2023/09/01 00:33:48;;;;;;;4.35;1.80;;;13.60;73.80;;;;;;5107632;27;20049;-74
2023/09/01 00:36:14;;;;;;;4.30;1.80;;;13.60;73.80;;;;;;5107398;27;20615;-74
2023/09/01 00:38:43;;;;;;;3.95;1.80;;;13.60;73.90;;;;;;5103406;27;20099;-74
2023/09/01 00:41:10;;;;;;;4.88;2.00;;;13.50;74.00;;;;;;5126660;27;20053;-74
2023/09/01 00:43:37;;;;;;;5.03;2.10;;;13.50;74.10;;;;;;5089869;27;20461;-73
2023/09/01 00:46:04;;;;;;;4.93;2.03;;;13.50;74.20;;;;;;5117210;27;20054;-73
2023/09/01 00:48:31;;;;;;;5.57;1.80;;;13.50;74.30;;;;;;5105297;27;20052;-73
2023/09/01 00:50:58;;;;;;;4.20;1.80;;;13.50;74.40;;;;;;5106809;27;20221;-73
2023/09/01 00:53:26;;;;;;;3.58;1.75;;;13.50;74.40;;;;;;5105243;27;20582;-74
2023/09/01 00:55:57;;;;;;;3.70;1.77;;;13.50;74.50;;;;;;5079995;27;20040;-74
2023/09/01 00:58:24;;;;;;;3.70;1.50;;;13.50;74.60;;;;;;5095313;27;20741;-74
2023/09/01 01:00:52;;;;;;;3.90;1.50;;;13.40;74.70;;;;;;5107643;27;20059;-73
2023/09/01 01:03:21;;;;;;;4.30;1.67;;;13.30;74.80;;;;;;5091516;28;20051;-74
2023/09/01 01:06:00;;;;;;;4.03;1.50;;;13.30;74.90;;;;;;5108395;27;20056;-73
2023/09/01 01:08:36;;;;;;;4.50;1.47;;;13.30;75.00;;;;;;5087045;28;20150;-73
2023/09/01 01:11:14;;;;;;;4.28;1.40;;;13.30;75.10;;;;;;5090951;28;20043;-73
2023/09/01 01:13:47;;;;;;;3.55;1.33;;;13.30;75.10;;;;;;5123653;27;20100;-73
2023/09/01 01:16:17;;;;;;;3.88;1.38;;;13.30;75.10;;;;;;5126948;27;20048;-73
2023/09/01 01:18:46;;;;;;;4.15;1.52;;;13.30;75.10;;;;;;5097893;27;20781;-74
2023/09/01 01:21:22;;;;;;;4.03;1.60;;;13.30;75.20;;;;;;5119934;27;20052;-73
2023/09/01 01:23:52;;;;;;;4.43;1.45;;;13.30;75.30;;;;;;5096937;27;20106;-73
2023/09/01 01:26:23;;;;;;;3.35;1.40;;;13.30;75.40;;;;;;5103760;27;20430;-74
2023/09/01 01:28:50;;;;;;;5.60;1.50;;;13.30;75.30;;;;;;5088480;27;20094;-75
2023/09/01 01:31:18;;;;;;;3.97;1.35;;;13.30;75.30;;;;;;5087201;27;20074;-73
2023/09/01 01:33:54;;;;;;;5.37;1.40;;;13.30;75.30;;;;;;5122145;27;20051;-73
2023/09/01 01:36:31;;;;;;;4.03;1.67;;;13.30;75.30;;;;;;5090053;27;20052;-73
2023/09/01 01:39:05;;;;;;;4.43;1.90;;;13.30;75.30;;;;;;5087782;27;20045;-73
2023/09/01 01:41:41;;;;;;;4.70;2.10;;;13.30;75.40;;;;;;5083331;28;20096;-73
2023/09/01 01:44:10;;;;;;;4.53;2.60;;;13.30;75.40;;;;;;5078146;28;20044;-74
2023/09/01 01:46:38;;;;;;;6.37;2.60;;;13.30;75.40;;;;;;5117809;27;20502;-74
2023/09/01 01:49:09;;;;;;;4.75;2.33;;;13.30;75.40;;;;;;5088276;27;20064;-73
2023/09/01 01:51:36;;;;;;;5.40;2.75;;;13.30;75.50;;;;;;5110099;27;20055;-73
2023/09/01 01:54:05;;;;;;;6.85;2.78;;;13.30;75.40;;;;;;5074133;28;20068;-73
2023/09/01 01:56:32;;;;;;;4.40;2.33;;;13.30;75.50;;;;;;5085607;28;20650;-74
2023/09/01 01:58:59;;;;;;;5.30;2.13;;;13.30;75.50;;;;;;5087208;28;20040;-73
2023/09/01 02:01:26;;;;;;;4.07;2.03;;;13.30;75.40;;;;;;5080578;28;20056;-73
2023/09/01 02:03:53;;;;;;;6.72;2.70;;;13.30;75.40;;;;;;5079081;28;20536;-73
2023/09/01 02:06:20;;;;;;;5.47;2.28;;;13.30;75.50;;;;;;5116825;27;20087;-73
2023/09/01 02:08:47;;;;;;;6.95;2.38;;;13.30;75.70;;;;;;5087242;27;20126;-74
2023/09/01 02:11:15;;;;;;;4.93;2.10;;;13.20;75.80;;;;;;5110449;27;20057;-73
2023/09/01 02:13:42;;;;;;;5.63;2.35;;;13.20;75.80;;;;;;5104693;27;20636;-74
2023/09/01 02:16:09;;;;;;;4.47;2.75;;;13.20;75.80;;;;;;5093006;27;20072;-73
2023/09/01 02:18:38;;;;;;;5.43;2.40;;;13.30;75.90;;;;;;5087531;27;20620;-73
2023/09/01 02:21:05;;;;;;;7.05;2.60;;;13.20;76.00;;;;;;5092038;27;20056;-73
2023/09/01 02:23:32;;;;;;;5.00;2.90;;;13.20;76.10;;;;;;5090816;28;20037;-73
2023/09/01 02:25:59;;;;;;;5.60;2.53;;;13.20;76.20;;;;;;5090273;28;20571;-73
2023/09/01 02:28:27;;;;;;;5.28;2.50;;;13.20;76.20;;;;;;5088930;27;20558;-73
2023/09/01 02:30:54;;;;;;;6.22;3.30;;;13.10;76.30;;;;;;5089754;27;20140;-74
2023/09/01 02:33:21;;;;;;;5.13;2.35;;;13.10;76.30;;;;;;5108024;27;20048;-74
2023/09/01 02:35:49;;;;;;;5.60;2.53;;;13.10;76.30;;;;;;5091138;28;20083;-73
2023/09/01 02:38:16;;;;;;;4.60;2.40;;;13.10;76.40;;;;;;5121906;27;20131;-73
2023/09/01 02:40:43;;;;;;;3.95;2.08;;;13.10;76.40;;;;;;5088522;27;20499;-74
2023/09/01 02:43:10;;;;;;;5.93;2.50;;;13.10;76.50;;;;;;5122047;27;20048;-73
2023/09/01 02:45:39;;;;;;;5.10;2.40;;;13.10;76.50;;;;;;5084304;28;20044;-74
2023/09/01 02:48:06;;;;;;;4.93;2.40;;;13.10;76.70;;;;;;5086681;28;20049;-74
2023/09/01 02:50:33;;;;;;;6.22;2.65;;;13.10;76.70;;;;;;5086885;27;20482;-73
2023/09/01 02:53:00;;;;;;;5.18;2.80;;;13.10;76.70;;;;;;5119843;27;20127;-73
2023/09/01 02:55:27;;;;;;;7.95;2.70;;;13.10;76.80;;;;;;5102325;27;20048;-74
2023/09/01 02:57:54;;;;;;;4.78;2.35;;;13.10;76.90;;;;;;5101913;27;20072;-73
2023/09/01 03:00:22;;;;;;;5.20;2.53;;;13.10;76.80;;;;;;5087194;27;20092;-73
2023/09/01 03:02:51;;;;;;;5.13;2.35;;;13.10;76.60;;;;;;5091331;27;20136;-74
2023/09/01 03:05:18;;;;;;;7.38;2.85;;;13.10;76.80;;;;;;5103824;27;20102;-73
2023/09/01 03:07:45;;;;;;;5.07;2.67;;;13.10;76.90;;;;;;5082880;28;20491;-73
2023/09/01 03:10:12;;;;;;;5.60;2.67;;;13.10;76.90;;;;;;5086772;28;20045;-73
2023/09/01 03:12:40;;;;;;;5.57;2.50;;;13.10;76.80;;;;;;5098080;27;20049;-74
2023/09/01 03:15:08;;;;;;;7.72;2.60;;;13.10;77.00;;;;;;5090054;28;20046;-73
2023/09/01 03:17:35;;;;;;;6.25;2.70;;;13.10;77.00;;;;;;5090334;27;20529;-74
2023/09/01 03:20:06;;;;;;;5.65;2.60;;;13.10;77.10;;;;;;5073704;28;20057;-73
2023/09/01 03:22:33;;;;;;;5.30;2.55;;;13.10;77.20;;;;;;5082989;28;20101;-73
2023/09/01 03:25:01;;;;;;;4.73;2.50;;;13.10;77.10;;;;;;5096917;27;20041;-73
2023/09/01 03:27:29;;;;;;;5.85;2.60;;;13.10;77.20;;;;;;5099985;27;20044;-74
2023/09/01 03:29:56;;;;;;;4.95;2.30;;;13.10;77.20;;;;;;5092108;28;20054;-73
2023/09/01 03:32:28;;;;;;;5.53;2.40;;;13.10;77.40;;;;;;5080129;28;20593;-74
2023/09/01 03:34:55;;;;;;;5.60;2.38;;;13.10;77.30;;;;;;5114905;27;20052;-74
2023/09/01 03:37:24;;;;;;;5.00;2.20;;;13.10;77.30;;;;;;5073684;28;20135;-74
2023/09/01 03:39:51;;;;;;;5.90;2.60;;;13.10;77.40;;;;;;5092490;28;20055;-74
2023/09/01 03:42:19;;;;;;;5.15;2.83;;;13.10;77.30;;;;;;5089699;28;20143;-73
2023/09/01 03:44:46;;;;;;;5.82;2.50;;;13.10;77.40;;;;;;5118470;27;20598;-74
2023/09/01 03:47:14;;;;;;;5.13;2.50;;;13.10;77.40;;;;;;5105397;27;20140;-73
2023/09/01 03:49:41;;;;;;;4.67;2.27;;;13.10;77.50;;;;;;5105653;27;20048;-73
2023/09/01 03:52:08;;;;;;;5.35;2.67;;;13.10;77.30;;;;;;5089275;28;20054;-73
2023/09/01 03:54:36;;;;;;;4.25;2.10;;;13.10;77.20;;;;;;5079862;27;20072;-73
2023/09/01 03:57:04;;;;;;;5.22;2.30;;;13.10;77.20;;;;;;5075457;28;20048;-73
2023/09/01 03:59:31;;;;;;;4.47;2.40;;;13.10;77.20;;;;;;5109698;27;20129;-73
2023/09/01 04:01:58;;;;;;;4.00;2.10;;;13.10;77.20;;;;;;5089326;28;20049;-73
2023/09/01 04:04:25;;;;;;;3.95;1.80;;;13.00;77.20;;;;;;5107309;27;20698;-73
2023/09/01 04:06:52;;;;;;;3.85;1.90;;;13.00;77.20;;;;;;5089629;28;20161;-74
2023/09/01 04:09:19;;;;;;;4.80;2.20;;;13.00;77.10;;;;;;5124452;27;20072;-73
2023/09/01 04:11:48;;;;;;;5.05;2.30;;;13.00;77.10;;;;;;5089331;28;20542;-73
2023/09/01 04:14:15;;;;;;;5.00;2.30;;;13.00;77.10;;;;;;5079463;27;20079;-73
2023/09/01 04:16:42;;;;;;;4.75;2.22;;;12.90;77.20;;;;;;5094071;27;20139;-74
2023/09/01 04:19:09;;;;;;;5.95;3.20;;;12.90;77.20;;;;;;5126663;27;20048;-73
2023/09/01 04:21:37;;;;;;;4.78;2.47;;;12.90;77.30;;;;;;5108997;28;20048;-73
2023/09/01 04:24:05;;;;;;;5.65;2.70;;;12.90;77.30;;;;;;5087685;27;20552;-73
2023/09/01 04:26:33;;;;;;;4.60;2.70;;;12.90;77.30;;;;;;5108104;27;20058;-73
2023/09/01 04:29:03;;;;;;;4.82;2.53;;;12.90;77.20;;;;;;5081810;28;20509;-74
2023/09/01 04:31:32;;;;;;;6.47;3.28;;;12.80;77.30;;;;;;5075221;28;20156;-73
2023/09/01 04:34:02;;;;;;;5.95;2.80;;;12.80;77.30;;;;;;5106098;27;20080;-73
2023/09/01 04:36:30;;;;;;;5.05;2.88;;;12.80;77.30;;;;;;5107730;27;20052;-73
2023/09/01 04:38:57;;;;;;;5.67;2.53;;;12.80;77.30;;;;;;5092169;28;20044;-73
2023/09/01 04:41:24;;;;;;;3.70;1.80;;;12.80;77.20;;;;;;5086118;28;20040;-73
2023/09/01 04:43:51;;;;;;;4.28;1.90;;;12.80;77.20;;;;;;5091355;27;20048;-73
2023/09/01 04:46:19;;;;;;;4.20;1.80;;;12.80;77.10;;;;;;5087637;28;20498;-73
2023/09/01 04:48:46;;;;;;;4.75;1.73;;;12.70;77.10;;;;;;5088481;28;20068;-73
2023/09/01 04:51:13;;;;;;;4.47;1.93;;;12.70;77.00;;;;;;5094312;27;20084;-73
2023/09/01 04:53:41;;;;;;;4.65;2.13;;;12.70;77.00;;;;;;5105932;27;20172;-73
2023/09/01 04:56:08;;;;;;;4.28;1.83;;;12.70;77.00;;;;;;5101792;28;20048;-73
2023/09/01 04:58:35;;;;;;;5.10;2.22;;;12.70;77.00;;;;;;5095133;27;20128;-73
2023/09/01 05:01:02;;;;;;;5.82;2.30;;;12.70;77.00;;;;;;5115856;27;20076;-73
2023/09/01 05:03:31;;;;;;;4.80;2.37;;;12.70;77.10;;;;;;5094451;27;20060;-73
2023/09/01 05:05:58;;;;;;;5.50;2.00;;;12.70;77.20;;;;;;5084619;28;20060;-73
2023/09/01 05:08:25;;;;;;;3.80;1.80;;;12.70;77.20;;;;;;5105611;27;20052;-74
2023/09/01 05:10:53;;;;;;;3.85;1.60;;;12.70;77.20;;;;;;5085132;28;20165;-73
2023/09/01 05:13:20;;;;;;;4.03;1.83;;;12.70;77.20;;;;;;5090797;27;20130;-73
2023/09/01 05:15:48;;;;;;;4.10;1.70;;;12.70;77.30;;;;;;5104620;27;20044;-73
2023/09/01 05:18:16;;;;;;;4.00;1.95;;;12.60;77.30;;;;;;5097971;27;20155;-74
2023/09/01 05:20:47;;;;;;;4.40;1.92;;;12.60;77.40;;;;;;5089206;28;20048;-73
2023/09/01 05:23:15;;;;;;;5.20;2.40;;;12.60;77.40;;;;;;5089533;27;20477;-74
2023/09/01 05:25:42;;;;;;;5.18;2.40;;;12.60;77.40;;;;;;5088791;28;20549;-74
2023/09/01 05:28:10;;;;;;;5.20;2.17;;;12.60;77.50;;;;;;5090764;28;20048;-73
2023/09/01 05:30:38;;;;;;;5.22;2.28;;;12.60;77.60;;;;;;5090365;28;20610;-73
2023/09/01 05:33:05;;;;;;;3.88;1.90;;;12.60;77.80;;;;;;5087622;27;20545;-73
2023/09/01 05:35:33;;;;;;;3.33;1.60;;;12.60;77.90;;;;;;5107864;27;20113;-74
2023/09/01 05:38:01;;;;;;;3.90;1.85;;;12.60;77.90;;;;;;5090300;28;20047;-73
2023/09/01 05:40:28;;;;;;;5.47;2.20;;;12.60;78.00;;;;;;5090293;28;20052;-73
2023/09/01 05:42:55;;;;;;;4.28;1.88;;;12.50;78.00;;;;;;5088856;27;20051;-73
2023/09/01 05:45:22;;;;;;;4.18;2.00;;;12.50;78.10;;;;;;5116074;27;20934;-75
2023/09/01 05:47:49;;;;;;;5.60;2.20;;;12.50;78.20;;;;;;5091035;28;20699;-75
2023/09/01 05:50:18;;;;;;;4.25;2.10;;;12.60;78.30;;;;;;5106996;28;20048;-75
2023/09/01 05:52:45;;;;;;;6.00;2.20;;;12.50;78.40;;;;;;5087724;27;20056;-75
2023/09/01 05:55:13;;;;;;;5.47;2.55;;;12.50;78.50;;;;;;5105847;27;20056;-75
2023/09/01 05:57:41;;;;;;;5.18;2.53;;;12.60;78.50;;;;;;5105865;27;20056;-75
2023/09/01 06:00:09;;;;;;;6.55;2.67;;;12.60;78.50;;;;;;5104689;27;20056;-75
2023/09/01 06:02:42;;;;;;;5.10;2.97;;;12.60;78.70;;;;;;5087227;27;20055;-74
2023/09/01 06:05:09;;;;;;;7.73;3.40;;;12.60;78.50;;;;;;5149140;27;20048;-74
2023/09/01 06:07:37;;;;;;;8.88;3.70;;;12.60;78.60;;;;;;5117464;27;20044;-73
2023/09/01 06:10:04;;;;;;;6.13;2.92;;;12.60;78.80;;;;;;5112385;27;20052;-73
2023/09/01 06:12:33;;;;;;;7.00;2.83;;;12.60;78.90;;;;;;5110058;27;20419;-73
2023/09/01 06:15:00;;;;;;;5.55;2.60;;;12.70;79.10;;;;;;5111899;27;20158;-73
2023/09/01 06:17:27;;;;;;;6.57;2.57;;;12.70;79.10;;;;;;5108803;27;20509;-73
2023/09/01 06:19:54;;;;;;;4.80;2.55;;;12.70;79.30;;;;;;5113664;27;20056;-73
2023/09/01 06:22:21;;;;;;;9.95;3.50;;;12.70;79.50;;;;;;5093643;27;20133;-74
2023/09/01 06:24:50;;;;;;;7.20;3.50;;;12.70;79.70;;;;;;5114281;27;20091;-74
2023/09/01 06:27:17;;;;;;;7.13;3.70;;;12.70;79.80;;;;;;5107143;27;20048;-75
2023/09/01 06:29:45;;;;;;;7.37;3.70;;;12.70;79.80;;;;;;5106051;27;20067;-74
2023/09/01 06:32:13;;;;;;;7.05;4.07;;;12.70;80.00;;;;;;5103346;27;20048;-75
2023/09/01 06:34:40;;;;;;;8.05;3.97;;;12.80;80.30;;;;;;5117850;27;20041;-74
2023/09/01 06:37:07;;;;;;;7.38;3.88;;;12.80;80.30;;;;;;5088302;28;20050;-74
2023/09/01 06:39:34;;;;;;;7.82;3.95;;;12.80;80.60;;;;;;5107309;27;20437;-74
2023/09/01 06:42:01;;;;;;;8.73;4.20;;;12.80;80.90;;;;;;5102343;27;20049;-74
2023/09/01 06:44:28;;;;;;;7.72;4.22;;;12.90;81.00;;;;;;5095181;27;20046;-73
2023/09/01 06:46:57;;;;;;;8.57;5.03;;;12.90;80.90;;;;;;5149407;27;20066;-74
2023/09/01 06:49:24;;;;;;;10.73;6.28;;;12.90;81.20;;;;;;5112452;27;20078;-73
2023/09/01 06:51:51;;;;;;;11.45;6.63;;;13.00;81.60;;;;;;5113446;27;20162;-74
2023/09/01 06:54:19;;;;;;;12.67;7.23;;;13.00;81.80;;;;;;5151491;27;20490;-74
2023/09/01 06:56:46;;;;;;;13.73;7.68;;;13.00;82.10;;;;;;5099162;27;20044;-74
2023/09/01 06:59:13;;;;;;;14.25;7.60;;;13.10;82.40;;;;;;5092484;28;20173;-74
2023/09/01 07:01:40;;;;;;;12.20;7.35;;;13.10;82.20;;;;;;5111471;27;20123;-74
2023/09/01 07:04:08;;;;;;;15.00;8.25;;;13.10;82.30;;;;;;5106020;27;20133;-74
2023/09/01 07:06:35;;;;;;;12.43;7.60;;;13.20;82.60;;;;;;5146416;27;20050;-74
2023/09/01 07:09:03;;;;;;;11.30;7.85;;;13.30;82.70;;;;;;5107664;27;20174;-74
2023/09/01 07:11:30;;;;;;;13.55;8.30;;;13.30;83.00;;;;;;5100288;27;20149;-73
2023/09/01 07:13:57;;;;;;;12.15;8.07;;;13.30;83.00;;;;;;5094249;27;20417;-74
2023/09/01 07:16:25;;;;;;;16.52;9.15;;;13.40;83.30;;;;;;5111456;27;20071;-74
2023/09/01 07:18:52;;;;;;;17.47;9.90;;;13.50;83.40;;;;;;5110236;27;20083;-74
2023/09/01 07:21:20;;;;;;;15.07;9.10;;;13.50;83.60;;;;;;5100885;27;20051;-74
2023/09/01 07:23:48;;;;;;;14.68;9.32;;;13.60;83.90;;;;;;5088889;27;20044;-74
2023/09/01 07:26:16;;;;;;;15.20;9.10;;;13.60;83.90;;;;;;5143682;27;20047;-75
2023/09/01 07:28:43;;;;;;;15.63;9.27;;;13.70;84.10;;;;;;5094311;28;20086;-75
2023/09/01 07:31:12;;;;;;;15.37;8.83;;;13.80;84.40;;;;;;5097115;27;20054;-75
2023/09/01 07:33:41;;;;;;;15.60;9.15;;;13.90;84.40;;;;;;5086933;27;20044;-75
2023/09/01 07:36:10;;;;;;;15.55;8.93;;;13.90;84.50;;;;;;5104203;28;20048;-74
2023/09/01 07:38:39;;;;;;;14.55;9.27;;;14.00;84.60;;;;;;5101696;27;20049;-75
2023/09/01 07:41:07;;;;;;;14.30;8.73;;;14.00;84.50;;;;;;5139530;27;20101;-76
2023/09/01 07:43:35;;;;;;;17.07;9.77;;;14.10;84.60;;;;;;5086838;28;20044;-75
2023/09/01 07:46:02;;;;;;;15.45;9.63;;;14.10;84.50;;;;;;5099529;27;20059;-75
2023/09/01 07:48:29;;;;;;;15.98;9.98;;;14.20;84.60;;;;;;5106099;27;20586;-75
2023/09/01 07:50:56;;;;;;;17.58;10.48;;;14.30;84.60;;;;;;5096661;27;20047;-75
2023/09/01 07:53:23;;;;;;;19.55;10.75;;;14.30;84.60;;;;;;5082072;27;20604;-75
2023/09/01 07:55:52;;;;;;;19.13;10.40;;;14.40;84.70;;;;;;5099411;27;20494;-75
2023/09/01 07:58:19;;;;;;;17.30;10.40;;;14.40;84.70;;;;;;5103176;27;20040;-75
2023/09/01 08:00:46;;;;;;;16.67;10.23;;;14.50;84.50;;;;;;5107834;27;20056;-75
2023/09/01 08:03:13;;;;;;;17.05;10.48;;;14.50;84.50;;;;;;5122042;27;20059;-75
2023/09/01 08:05:40;;;;;;;17.95;10.80;;;14.60;84.50;;;;;;5108423;27;20502;-75
2023/09/01 08:08:07;;;;;;;17.93;10.67;;;14.60;84.50;;;;;;5110106;27;20125;-75
2023/09/01 08:10:34;;;;;;;18.00;11.05;;;14.70;84.70;;;;;;5101436;27;20167;-75
2023/09/01 08:13:05;;;;;;;18.08;10.85;;;14.70;84.80;;;;;;5104786;27;20052;-75
2023/09/01 08:15:32;;;;;;;17.45;10.52;;;14.80;84.70;;;;;;5100736;27;20506;-75
2023/09/01 08:17:59;;;;;;;18.35;10.70;;;14.90;84.70;;;;;;5104098;27;20344;-75
2023/09/01 08:20:26;;;;;;;17.30;10.40;;;14.90;84.60;;;;;;5093267;27;20044;-75
2023/09/01 08:22:53;;;;;;;17.05;10.80;;;15.00;84.50;;;;;;5123054;27;20106;-75
2023/09/01 08:25:20;;;;;;;18.10;10.57;;;15.00;84.50;;;;;;5097422;27;20066;-75
2023/09/01 08:27:47;;;;;;;17.98;10.88;;;15.00;84.40;;;;;;5102389;27;20595;-76
2023/09/01 08:30:16;;;;;;;19.40;10.75;;;15.10;84.30;;;;;;5137159;27;20482;-75
2023/09/01 08:32:43;;;;;;;16.43;9.97;;;15.10;84.20;;;;;;5088523;28;20048;-75
2023/09/01 08:35:11;;;;;;;17.77;10.25;;;15.20;84.20;;;;;;5088752;28;20458;-75
2023/09/01 08:37:38;;;;;;;14.98;9.50;;;15.20;84.20;;;;;;5101308;27;20053;-75
2023/09/01 08:40:07;;;;;;;16.58;9.57;;;15.30;84.10;;;;;;5100941;27;20058;-75
2023/09/01 08:42:34;;;;;;;15.23;9.45;;;15.30;84.00;;;;;;5136502;27;20131;-75
2023/09/01 08:45:03;;;;;;;17.80;9.77;;;15.40;83.80;;;;;;5102294;27;20052;-75
2023/09/01 08:47:44;;;;;;;17.55;9.90;;;15.40;83.90;;;;;;5134000;27;20044;-75
2023/09/01 08:50:11;;;;;;;16.05;10.20;;;15.50;83.90;;;;;;5141747;27;20548;-76
2023/09/01 08:52:39;;;;;;;16.35;10.32;;;15.50;83.80;;;;;;5105998;27;20582;-75
2023/09/01 08:55:06;;;;;;;16.73;9.68;;;15.60;83.70;;;;;;5092863;27;20884;-75
2023/09/01 08:57:33;;;;;;;19.07;9.73;;;15.60;83.80;;;;;;5104872;27;20135;-75
2023/09/01 09:00:00;;;;;;;19.80;10.40;;;15.60;83.70;;;;;;5100719;27;20421;-75
2023/09/01 09:02:27;;;;;;;15.73;9.43;;;15.70;83.60;;;;;;5099427;27;20048;-75
2023/09/01 09:04:55;;;;;;;20.65;10.70;;;15.80;83.50;;;;;;5105813;27;20450;-75
2023/09/01 09:07:22;;;;;;;16.65;10.32;;;15.80;83.50;;;;;;5102092;27;20063;-75
2023/09/01 09:09:49;;;;;;;18.83;10.40;;;15.80;83.40;;;;;;5084392;27;20041;-75
2023/09/01 09:12:18;;;;;;;19.63;10.40;;;16.00;83.40;;;;;;5107667;27;20052;-76
2023/09/01 09:14:51;;;;;;;17.10;10.10;;;16.00;83.30;;;;;;5105220;27;20052;-76
2023/09/01 09:17:18;;;;;;;19.38;10.80;;;16.00;83.30;;;;;;5108902;27;20133;-76
2023/09/01 09:19:53;;;;;;;19.15;11.00;;;16.10;83.40;;;;;;5106491;27;20059;-75
2023/09/01 09:22:22;;;;;;;17.70;9.70;;;16.10;83.20;;;;;;5106230;27;20063;-76
2023/09/01 09:24:49;;;;;;;18.35;10.18;;;16.20;83.20;;;;;;5106450;27;20557;-75
2023/09/01 09:27:17;;;;;;;16.95;9.40;;;16.30;83.30;;;;;;5100642;27;20539;-76
2023/09/01 09:29:45;;;;;;;15.98;9.75;;;16.40;83.20;;;;;;5136817;27;20162;-75
2023/09/01 09:32:23;;;;;;;18.25;10.25;;;16.40;83.00;;;;;;5105193;27;20067;-75
2023/09/01 09:35:08;;;;;;;19.50;10.03;;;16.50;83.10;;;;;;5108069;27;20078;-76
2023/09/01 09:37:38;;;;;;;17.52;9.93;;;16.50;83.00;;;;;;5107592;28;20525;-75
2023/09/01 09:40:16;;;;;;;18.10;9.93;;;16.60;82.90;;;;;;5090448;27;20045;-75
2023/09/01 09:42:44;;;;;;;20.00;10.35;;;16.70;82.80;;;;;;5098424;27;20751;-76
2023/09/01 09:45:23;;;;;;;19.65;10.65;;;16.70;82.70;;;;;;5089496;27;20062;-75
2023/09/01 09:47:51;;;;;;;14.77;9.30;;;16.80;82.60;;;;;;5089760;27;20044;-75
2023/09/01 09:50:18;;;;;;;17.85;10.57;;;16.90;82.50;;;;;;5128878;27;20159;-75
2023/09/01 09:52:50;;;;;;;14.02;8.65;;;16.90;82.40;;;;;;5105556;27;20147;-75
2023/09/01 09:55:25;;;;;;;15.80;8.70;;;17.00;82.30;;;;;;5107707;28;20051;-76
2023/09/01 09:57:55;;;;;;;15.98;8.93;;;17.00;82.20;;;;;;5086000;28;20118;-76
2023/09/01 10:00:22;;;;;;;16.77;8.23;;;17.10;82.00;;;;;;5099429;27;20052;-76
2023/09/01 10:02:54;;;;;;;12.57;7.05;;;17.20;81.50;;;;;;5103052;27;20060;-76
2023/09/01 10:05:23;;;;;;;14.52;7.82;;;17.20;81.50;;;;;;5087467;28;20052;-76
2023/09/01 10:07:54;;;;;;;15.07;9.00;;;17.20;81.00;;;;;;5138317;27;20052;-76
2023/09/01 10:10:21;;;;;;;15.88;8.15;;;17.30;80.70;;;;;;5130708;27;20428;-75
2023/09/01 10:12:48;;;;;;;15.53;8.23;;;17.40;80.50;;;;;;5087803;27;20127;-76
2023/09/01 10:15:16;;;;;;;13.23;7.05;;;17.40;80.30;;;;;;5100985;27;20051;-75
2023/09/01 10:17:44;;;;;;;16.33;8.05;;;17.50;80.20;;;;;;5103066;27;20041;-76
2023/09/01 10:20:12;;;;;;;13.38;7.70;;;17.50;80.10;;;;;;5095508;27;20057;-75
2023/09/01 10:22:39;;;;;;;13.80;7.78;;;17.50;79.80;;;;;;5130757;27;20569;-76
2023/09/01 10:25:11;;;;;;;13.37;6.97;;;17.50;79.70;;;;;;5101182;27;20055;-76
2023/09/01 10:28:03;;;;;;;14.48;6.45;;;17.60;79.50;;;;;;5096343;27;20128;-75
2023/09/01 10:30:32;;;;;;;12.63;5.63;;;17.60;79.00;;;;;;5090832;27;20052;-76
2023/09/01 10:33:12;;;;;;;12.38;5.72;;;17.60;78.70;;;;;;5104955;27;20141;-75
2023/09/01 10:35:47;;;;;;;12.90;6.32;;;17.70;78.40;;;;;;5128284;27;20203;-76
2023/09/01 10:38:18;;;;;;;10.93;5.90;;;17.80;78.30;;;;;;5138687;27;20040;-76
2023/09/01 10:40:48;;;;;;;16.88;6.30;;;17.80;77.90;;;;;;5101033;27;20056;-75
2023/09/01 10:43:55;;;;;;;12.95;6.43;;;17.80;77.60;;;;;;5100671;27;20122;-75
2023/09/01 10:46:25;;;;;;;13.85;6.97;;;17.80;77.40;;;;;;5107147;28;20048;-75
2023/09/01 10:48:53;;;;;;;15.48;6.85;;;17.80;77.50;;;;;;5089345;27;20048;-75
2023/09/01 10:51:22;;;;;;;13.50;6.70;;;17.80;77.40;;;;;;5082018;28;20051;-75
2023/09/01 10:53:51;;;;;;;13.25;7.00;;;17.80;77.30;;;;;;5103119;27;20048;-75
2023/09/01 10:56:20;;;;;;;13.82;7.13;;;17.80;77.20;;;;;;5100747;27;20553;-74
2023/09/01 10:58:49;;;;;;;12.93;7.40;;;17.80;77.20;;;;;;5097640;27;20047;-75
2023/09/01 11:01:31;;;;;;;14.00;7.30;;;17.80;77.20;;;;;;5131529;27;20087;-75
2023/09/01 11:04:32;;;;;;;12.53;7.00;;;17.90;77.10;;;;;;5101099;28;20541;-75
2023/09/01 11:07:07;;;;;;;13.18;7.20;;;17.90;77.20;;;;;;5095499;27;20129;-75
2023/09/01 11:09:48;;;;;;;13.05;6.68;;;18.00;77.10;;;;;;5132680;27;20617;-76
2023/09/01 11:12:17;;;;;;;11.10;6.55;;;18.00;77.10;;;;;;5138700;27;20131;-75
2023/09/01 11:15:00;;;;;;;13.93;6.65;;;18.00;76.80;;;;;;5106747;27;20485;-76
2023/09/01 11:17:49;;;;;;;12.27;6.50;;;18.00;76.40;;;;;;5097807;27;20056;-75
2023/09/01 11:20:19;;;;;;;13.75;6.50;;;18.00;76.20;;;;;;5088501;27;20107;-75
2023/09/01 11:22:46;;;;;;;11.90;5.93;;;18.00;76.30;;;;;;5126049;27;20502;-76
2023/09/01 11:25:15;;;;;;;13.00;6.32;;;18.00;76.50;;;;;;5089138;27;20051;-75
2023/09/01 11:27:45;;;;;;;13.05;6.22;;;18.10;76.60;;;;;;5070304;28;20422;-75
2023/09/01 11:30:12;;;;;;;8.90;4.70;;;18.10;76.70;;;;;;5107671;27;20182;-75
2023/09/01 11:32:39;;;;;;;10.43;5.50;;;18.10;76.70;;;;;;5112433;27;20052;-76
2023/09/01 11:35:09;;;;;;;11.73;5.28;;;18.20;76.70;;;;;;5085166;28;20048;-75
2023/09/01 11:37:38;;;;;;;12.80;5.68;;;18.20;76.50;;;;;;5091885;27;20410;-75
2023/09/01 11:40:09;;;;;;;12.95;5.78;;;18.20;76.60;;;;;;5117291;27;20047;-76
2023/09/01 11:42:38;;;;;;;10.60;5.23;;;18.30;76.70;;;;;;5104660;27;20102;-75
2023/09/01 11:45:09;;;;;;;10.43;5.93;;;18.40;76.40;;;;;;5102486;27;20165;-75
2023/09/01 11:47:36;;;;;;;8.45;5.10;;;18.40;76.30;;;;;;5074802;28;20163;-75
2023/09/01 11:50:04;;;;;;;9.95;5.07;;;18.50;76.30;;;;;;5096406;27;20069;-76
2023/09/01 11:52:31;;;;;;;9.18;4.30;;;18.50;75.90;;;;;;5110749;27;21024;-76
2023/09/01 11:54:59;;;;;;;11.13;3.70;;;18.50;75.50;;;;;;5092981;28;20619;-75
2023/09/01 11:57:25;;;;;;;10.55;3.92;;;18.60;75.30;;;;;;5088833;28;20048;-75
2023/09/01 11:59:52;;;;;;;9.40;4.35;;;18.60;75.00;;;;;;5105796;27;20496;-75
2023/09/01 12:02:22;;;;;;;10.00;4.50;;;18.60;75.00;;;;;;5132804;27;20114;-75
2023/09/01 12:04:50;;;;;;;10.07;4.32;;;18.70;74.80;;;;;;5106917;27;20048;-75
2023/09/01 12:07:29;;;;;;;7.47;4.40;;;18.70;74.90;;;;;;5092622;28;20131;-75
2023/09/01 12:09:56;;;;;;;11.05;4.82;;;18.80;74.70;;;;;;5107269;27;20545;-76
2023/09/01 12:12:24;;;;;;;8.68;4.30;;;18.80;74.40;;;;;;5138315;27;20054;-76
2023/09/01 12:15:04;;;;;;;8.68;3.83;;;18.80;74.10;;;;;;5107626;27;20143;-75
2023/09/01 12:17:32;;;;;;;9.27;4.07;;;18.90;73.70;;;;;;5087971;28;20048;-75
2023/09/01 12:20:01;;;;;;;9.83;4.13;;;18.90;73.20;;;;;;5097641;27;20477;-75
2023/09/01 12:22:28;;;;;;;9.02;3.65;;;18.80;73.20;;;;;;5107668;27;20059;-75
2023/09/01 12:24:57;;;;;;;7.55;3.45;;;18.90;73.40;;;;;;5109734;27;20071;-75
2023/09/01 12:27:25;;;;;;;8.60;3.60;;;18.90;73.40;;;;;;5083370;27;20054;-75
2023/09/01 12:29:52;;;;;;;5.38;2.15;;;18.90;73.50;;;;;;5092441;28;20071;-76
2023/09/01 12:32:19;;;;;;;5.60;2.30;;;19.00;72.90;;;;;;5080880;27;20044;-75
2023/09/01 12:34:47;;;;;;;7.43;2.55;;;19.00;72.50;;;;;;5113954;27;20048;-75
2023/09/01 12:37:14;;;;;;;8.57;3.40;;;19.00;72.20;;;;;;5102280;27;20075;-76
2023/09/01 12:39:41;;;;;;;9.70;4.30;;;19.00;72.50;;;;;;5109165;27;20151;-75
2023/09/01 12:42:08;;;;;;;8.50;4.05;;;19.00;72.50;;;;;;5108726;27;20052;-76
2023/09/01 12:44:36;;;;;;;9.90;4.07;;;19.00;72.50;;;;;;5105092;27;20044;-75
2023/09/01 12:47:03;;;;;;;10.98;4.90;;;19.10;72.50;;;;;;5122969;27;20636;-75
2023/09/01 12:49:30;;;;;;;9.55;4.70;;;19.10;72.60;;;;;;5097664;27;20074;-76